Time;durP1;ratioP1;P1;durP2;ratioP2;P2;SDS_P1;SDS_P2;PMS_P1;PMS_P2;Temp;Humidity;BMP_temperature;BMP_pressure;BME280_temperature;BME280_humidity;BME280_pressure;Samples;Min_cycle;Max_cycle;Signal;HPM_P1;HPM_P2
2022/08/23 00:01:23;;;;;;;9.20;5.43;;;;;;;31.86;32.54;101442.84;5054720;28;20116;-71
2022/08/23 00:03:49;;;;;;;10.73;5.70;;;;;;;31.77;32.99;101438.25;5053601;28;20032;-71
2022/08/23 00:06:16;;;;;;;13.10;5.18;;;;;;;31.78;33.27;101442.69;5072347;28;20020;-71
2022/08/23 00:08:41;;;;;;;13.02;5.53;;;;;;;31.09;33.46;101449.66;5067373;28;20024;-71
2022/08/23 00:11:23;;;;;;;11.27;6.20;;;;;;;29.86;35.91;101459.06;5088967;28;20507;-71
2022/08/23 00:13:48;;;;;;;8.93;6.13;;;;;;;30.73;34.80;101465.34;5092302;28;20119;-71
2022/08/23 00:16:14;;;;;;;12.85;6.00;;;;;;;31.66;33.03;101449.19;5091230;28;20099;-71
2022/08/23 00:18:40;;;;;;;11.38;7.40;;;;;;;31.32;33.71;101453.03;5066808;28;20028;-71
2022/08/23 00:21:05;;;;;;;15.32;7.07;;;;;;;31.03;34.03;101466.41;5053925;28;20392;-71
2022/08/23 00:23:31;;;;;;;13.52;6.60;;;;;;;30.85;34.61;101466.13;5056373;28;20074;-71
2022/08/23 00:26:00;;;;;;;11.95;7.22;;;;;;;30.17;35.88;101470.00;5056784;28;20040;-71
2022/08/23 00:28:25;;;;;;;10.48;7.32;;;;;;;31.07;34.26;101462.44;5084843;28;20491;-71
2022/08/23 00:30:51;;;;;;;13.18;6.90;;;;;;;30.40;35.27;101478.00;5073304;28;20119;-72
2022/08/23 00:33:17;;;;;;;17.10;8.65;;;;;;;30.79;34.99;101467.53;5058618;28;20024;-71
2022/08/23 00:35:42;;;;;;;15.30;7.95;;;;;;;30.76;34.46;101470.47;5053912;28;20118;-71
2022/08/23 00:38:08;;;;;;;16.42;7.43;;;;;;;30.96;34.44;101477.69;5063252;28;20024;-71
2022/08/23 00:40:33;;;;;;;12.65;6.78;;;;;;;30.73;35.00;101476.13;5078634;28;20056;-71
2022/08/23 00:48:54;;;;;;;12.98;7.55;;;;;;;31.13;33.39;101462.75;5062373;28;20560;-71
2022/08/23 00:51:29;;;;;;;9.90;6.85;;;;;;;31.34;32.92;101469.09;5033127;28;20119;-71
2022/08/23 00:53:57;;;;;;;11.90;6.28;;;;;;;31.22;33.40;101460.25;5033428;28;20119;-71
2022/08/23 00:56:25;;;;;;;13.30;7.10;;;;;;;31.43;33.18;101465.56;5039532;28;20024;-71
2022/08/23 00:58:51;;;;;;;12.50;6.88;;;;;;;31.23;33.80;101465.50;5068670;28;20101;-71
2022/08/23 01:01:17;;;;;;;13.63;6.22;;;;;;;31.10;33.93;101472.97;5053248;28;20024;-71
2022/08/23 01:03:45;;;;;;;9.23;6.10;;;;;;;31.27;33.75;101466.94;5053647;28;20032;-71
2022/08/23 01:06:25;;;;;;;9.70;5.78;;;;;;;31.41;33.48;101456.78;5052973;28;20025;-71
2022/08/23 01:08:56;;;;;;;12.10;6.30;;;;;;;31.25;33.51;101460.81;5066375;28;20441;-71
2022/08/23 01:11:31;;;;;;;12.85;6.70;;;;;;;31.41;33.14;101456.78;5051223;28;20122;-71
2022/08/23 01:14:09;;;;;;;11.13;5.88;;;;;;;31.66;33.35;101454.59;5032590;28;20491;-72
2022/08/23 01:16:52;;;;;;;9.63;5.57;;;;;;;31.34;33.16;101458.28;5033710;28;20051;-71
2022/08/23 01:19:29;;;;;;;7.32;4.80;;;;;;;31.58;33.08;101463.34;5051352;28;20458;-71
2022/08/23 01:22:08;;;;;;;10.40;5.60;;;;;;;31.59;33.43;101463.25;5052374;28;20056;-72
2022/08/23 01:24:33;;;;;;;11.50;5.82;;;;;;;31.57;33.25;101459.81;5070176;28;20027;-71
2022/08/23 01:26:59;;;;;;;9.88;5.50;;;;;;;31.67;32.88;101458.97;5046152;28;20580;-71
2022/08/23 01:29:24;;;;;;;13.70;5.80;;;;;;;31.41;33.99;101464.88;5037486;28;20021;-71
2022/08/23 01:31:50;;;;;;;9.48;5.18;;;;;;;31.49;33.98;101456.94;5037553;28;20028;-71
2022/08/23 01:34:17;;;;;;;11.20;5.63;;;;;;;31.29;34.18;101454.16;5041329;28;20357;-71
2022/08/23 01:36:44;;;;;;;8.23;4.90;;;;;;;31.52;33.46;101456.66;5049403;28;20119;-71
2022/08/23 01:39:10;;;;;;;9.10;5.03;;;;;;;31.49;33.38;101448.84;5054639;28;20017;-71
2022/08/23 01:41:37;;;;;;;9.25;4.50;;;;;;;31.50;33.58;101458.63;5036757;28;20055;-71
2022/08/23 01:44:04;;;;;;;12.52;5.00;;;;;;;31.53;33.89;101452.97;5055653;28;20044;-71
2022/08/23 01:46:30;;;;;;;7.00;4.50;;;;;;;31.69;33.51;101451.63;5037050;28;20086;-71
2022/08/23 01:48:57;;;;;;;8.63;4.30;;;;;;;31.53;33.55;101452.97;5035521;28;20040;-71
2022/08/23 01:51:23;;;;;;;10.68;5.03;;;;;;;31.54;33.45;101454.66;5056104;28;20138;-71
2022/08/23 01:53:49;;;;;;;7.55;4.47;;;;;;;31.69;33.73;101457.00;5054562;28;20112;-71
2022/08/23 01:56:18;;;;;;;10.50;5.40;;;;;;;31.60;33.89;101439.78;5035422;28;20116;-71
2022/08/23 01:58:44;;;;;;;8.00;4.43;;;;;;;31.75;33.58;101451.03;5070996;28;20522;-71
2022/08/23 02:01:09;;;;;;;10.65;4.85;;;;;;;31.79;33.34;101441.66;5053386;28;20020;-71
2022/08/23 02:03:36;;;;;;;6.53;4.30;;;;;;;32.01;33.42;101445.09;5054629;28;20553;-71
2022/08/23 02:06:02;;;;;;;8.88;4.72;;;;;;;31.78;34.00;101443.53;5054725;28;20037;-71
2022/08/23 02:11:16;;;;;;;10.70;4.53;;;;;;;31.80;33.86;101444.22;5072584;28;20039;-71
2022/08/23 02:13:42;;;;;;;6.97;4.32;;;;;;;31.73;34.43;101444.94;5036727;28;20036;-71
2022/08/23 02:16:08;;;;;;;10.18;4.60;;;;;;;32.02;33.57;101452.22;5051110;28;20036;-71
2022/08/23 02:18:34;;;;;;;11.20;5.22;;;;;;;32.04;33.71;101461.03;5074233;28;20467;-71
2022/08/23 02:21:00;;;;;;;11.25;4.47;;;;;;;32.13;33.13;101460.19;5056280;28;20024;-71
2022/08/23 02:23:26;;;;;;;8.77;4.70;;;;;;;31.91;34.06;101458.59;5055504;28;20028;-71
2022/08/23 02:25:52;;;;;;;10.27;5.10;;;;;;;31.96;34.13;101459.91;5043698;28;20037;-71
2022/08/23 02:28:23;;;;;;;9.93;5.28;;;;;;;31.91;34.06;101453.22;5053917;28;20032;-71
2022/08/23 02:30:49;;;;;;;10.43;5.53;;;;;;;31.94;34.32;101461.91;5035089;28;20021;-71
2022/08/23 02:33:16;;;;;;;6.40;4.65;;;;;;;31.71;34.68;101453.19;5036254;28;20091;-71
2022/08/23 02:35:41;;;;;;;10.43;5.03;;;;;;;31.87;34.67;101454.47;5045403;28;20022;-71
2022/08/23 02:38:10;;;;;;;8.88;5.07;;;;;;;32.00;34.33;101456.91;5054317;28;20025;-71
2022/08/23 02:40:36;;;;;;;8.68;4.85;;;;;;;32.02;33.99;101463.03;5045705;28;20059;-71
2022/08/23 02:43:03;;;;;;;9.80;6.20;;;;;;;32.09;33.81;101462.31;5035667;28;20547;-71
2022/08/23 02:45:28;;;;;;;8.90;5.10;;;;;;;32.05;33.62;101462.75;5056132;28;20116;-71
2022/08/23 02:47:55;;;;;;;10.85;6.22;;;;;;;31.90;33.35;101465.88;5035302;28;20538;-71
2022/08/23 02:50:20;;;;;;;12.48;5.88;;;;;;;31.92;33.27;101458.47;5050339;28;20032;-71
2022/08/23 02:52:46;;;;;;;13.80;6.28;;;;;;;32.06;32.39;101459.06;5055825;28;20035;-71
2022/08/23 02:55:12;;;;;;;13.70;7.07;;;;;;;32.37;31.51;101467.03;5048844;28;20038;-71
2022/08/23 02:57:40;;;;;;;12.85;6.20;;;;;;;32.26;31.70;101470.75;5044802;28;20069;-71
2022/08/23 03:00:09;;;;;;;6.97;5.47;;;;;;;32.04;32.58;101477.25;5035309;28;20115;-71
2022/08/23 03:02:36;;;;;;;9.80;6.30;;;;;;;32.17;31.56;101471.63;5035592;28;20056;-71
2022/08/23 03:05:06;;;;;;;15.38;6.93;;;;;;;32.42;31.32;101470.19;5039144;28;20036;-71
2022/08/23 03:07:31;;;;;;;11.90;6.80;;;;;;;32.03;32.48;101470.16;5054702;28;20029;-71
2022/08/23 03:09:57;;;;;;;11.75;6.15;;;;;;;32.60;31.26;101468.47;5045627;28;20047;-70
2022/08/23 03:12:23;;;;;;;9.55;5.43;;;;;;;32.23;32.17;101468.34;5055304;28;20024;-70
2022/08/23 03:14:50;;;;;;;11.85;6.15;;;;;;;32.12;32.71;101475.56;5071687;28;20055;-71
2022/08/23 03:17:16;;;;;;;8.05;5.35;;;;;;;32.20;32.70;101471.34;5054456;28;20043;-72
2022/08/23 03:19:42;;;;;;;10.05;6.03;;;;;;;31.94;33.12;101467.31;5054776;28;20032;-71
2022/08/23 03:22:07;;;;;;;13.20;5.78;;;;;;;32.33;31.96;101471.91;5055039;28;20025;-71
2022/08/23 03:24:33;;;;;;;8.55;5.53;;;;;;;32.32;32.00;101472.06;5052373;28;20190;-71
2022/08/23 03:26:58;;;;;;;10.13;5.85;;;;;;;32.36;32.37;101468.91;5056048;28;20070;-71
2022/08/23 03:29:24;;;;;;;13.10;5.85;;;;;;;32.63;31.59;101468.16;5055201;28;20028;-71
2022/08/23 03:31:50;;;;;;;11.60;6.50;;;;;;;32.32;31.86;101466.66;5072847;28;20030;-71
2022/08/23 03:34:16;;;;;;;15.68;6.32;;;;;;;32.25;32.06;101469.91;5072051;28;20488;-71
2022/08/23 03:36:41;;;;;;;10.63;5.90;;;;;;;32.46;32.05;101460.78;5049153;28;20032;-71
2022/08/23 03:39:07;;;;;;;11.10;6.20;;;;;;;32.37;31.65;101467.91;5054903;28;20060;-70
2022/08/23 03:41:32;;;;;;;8.48;5.65;;;;;;;32.64;31.28;101464.47;5070324;28;20067;-71
2022/08/23 03:43:57;;;;;;;11.60;6.05;;;;;;;32.53;31.51;101467.31;5063269;28;20052;-71
2022/08/23 03:46:23;;;;;;;13.32;5.95;;;;;;;32.32;31.79;101463.94;5080137;28;20024;-71
2022/08/23 03:48:55;;;;;;;10.18;5.60;;;;;;;32.42;31.74;101464.78;5053436;28;20029;-71
2022/08/23 03:51:22;;;;;;;12.80;6.32;;;;;;;32.28;31.91;101458.78;5064072;28;20038;-71
2022/08/23 03:53:48;;;;;;;12.98;5.85;;;;;;;32.53;31.46;101467.31;5071529;28;20496;-71
2022/08/23 03:56:36;;;;;;;12.65;5.78;;;;;;;32.30;32.35;101467.63;5057508;28;20020;-71
2022/08/23 03:59:05;;;;;;;11.05;5.78;;;;;;;32.24;32.00;101470.03;5073812;28;20070;-71
2022/08/23 04:01:31;;;;;;;15.88;6.28;;;;;;;32.20;32.27;101476.75;5091896;28;20023;-71
2022/08/23 04:03:58;;;;;;;7.85;5.38;;;;;;;32.24;31.58;101472.75;5072148;28;20380;-71
2022/08/23 04:06:26;;;;;;;8.70;5.15;;;;;;;32.42;31.41;101460.19;5089956;28;20024;-71
2022/08/23 04:08:53;;;;;;;11.55;6.30;;;;;;;32.47;31.30;101467.91;5088919;28;20032;-71
2022/08/23 04:11:19;;;;;;;12.10;5.57;;;;;;;32.24;32.04;101468.19;5059939;28;20042;-70
2022/08/23 04:13:45;;;;;;;10.10;5.57;;;;;;;32.28;32.25;101474.19;5072271;28;20035;-71
2022/08/23 04:16:10;;;;;;;8.65;5.22;;;;;;;32.15;32.39;101474.47;5065327;28;20028;-71
2022/08/23 04:18:36;;;;;;;11.63;5.50;;;;;;;32.15;32.95;101482.59;5058075;28;20070;-72
2022/08/23 04:21:07;;;;;;;11.85;6.43;;;;;;;32.16;32.72;101481.56;5076064;28;20123;-72
2022/08/23 04:23:33;;;;;;;13.85;6.35;;;;;;;32.15;32.22;101482.59;5068032;28;20023;-71
2022/08/23 04:25:58;;;;;;;15.20;6.05;;;;;;;31.93;32.89;101481.81;5083304;28;20036;-71
2022/08/23 04:28:23;;;;;;;14.73;6.50;;;;;;;31.99;32.80;101480.38;5073951;28;20028;-72
2022/08/23 04:30:50;;;;;;;9.45;6.53;;;;;;;32.00;32.40;101483.94;5073349;28;20023;-71
2022/08/23 04:33:16;;;;;;;14.57;6.75;;;;;;;31.84;32.74;101477.22;5068892;28;20223;-72
2022/08/23 04:35:42;;;;;;;14.13;7.22;;;;;;;31.87;32.86;101476.09;5062975;28;20373;-71
2022/08/23 04:38:08;;;;;;;14.77;6.95;;;;;;;31.86;33.25;101472.56;5053346;28;20025;-72
2022/08/23 04:43:18;;;;;;;11.70;7.13;;;;;;;31.54;33.68;101481.66;5067143;28;20066;-72
2022/08/23 04:45:43;;;;;;;15.23;8.13;;;;;;;31.55;33.77;101483.38;5042373;28;20111;-72
2022/08/23 04:48:09;;;;;;;13.43;7.68;;;;;;;31.71;33.55;101482.03;5040397;28;20526;-72
2022/08/23 04:50:35;;;;;;;14.32;7.18;;;;;;;31.51;33.89;101481.94;5053115;28;20028;-72
2022/08/23 04:53:01;;;;;;;11.70;7.40;;;;;;;31.66;34.03;101487.00;5053663;28;20027;-72
2022/08/23 04:55:27;;;;;;;12.45;8.55;;;;;;;31.50;33.88;101485.63;5056584;28;20156;-72
2022/08/23 04:57:53;;;;;;;14.60;8.63;;;;;;;31.49;34.36;101483.94;5052924;28;20103;-72
2022/08/23 05:00:18;;;;;;;16.00;8.23;;;;;;;31.36;34.60;101489.56;5051901;28;20020;-72
2022/08/23 05:02:45;;;;;;;13.27;8.40;;;;;;;31.35;34.76;101495.09;5037501;28;20546;-72
2022/08/23 05:05:11;;;;;;;16.95;8.40;;;;;;;31.39;34.48;101496.53;5038860;28;20013;-72
2022/08/23 05:07:38;;;;;;;17.08;9.38;;;;;;;31.26;35.18;101511.13;5049992;28;20029;-72
2022/08/23 05:10:06;;;;;;;13.35;7.95;;;;;;;31.24;34.98;101507.72;5033272;28;20025;-72
2022/08/23 05:12:31;;;;;;;11.25;8.13;;;;;;;31.55;34.72;101505.00;5067449;28;20021;-72
2022/08/23 05:14:56;;;;;;;13.75;9.50;;;;;;;31.05;35.72;101513.88;5042126;28;20040;-72
2022/08/23 05:17:22;;;;;;;17.25;10.02;;;;;;;30.98;35.88;101517.19;5052850;28;20016;-72
2022/08/23 05:19:47;;;;;;;15.02;10.00;;;;;;;31.40;35.67;101512.59;5070740;28;20025;-72
2022/08/23 05:22:13;;;;;;;14.93;9.45;;;;;;;31.66;35.05;101514.03;5053497;28;20020;-72
2022/08/23 05:24:38;;;;;;;17.85;9.40;;;;;;;32.15;33.97;101506.91;5052174;28;20039;-72
2022/08/23 05:27:03;;;;;;;11.65;8.60;;;;;;;31.89;34.73;101512.81;5067506;28;20024;-72
2022/08/23 05:29:29;;;;;;;13.77;9.52;;;;;;;31.61;35.37;101509.91;5054850;28;20027;-72
2022/08/23 05:31:55;;;;;;;12.70;8.90;;;;;;;31.95;34.58;101517.63;5032307;28;20029;-72
2022/08/23 05:34:22;;;;;;;14.80;10.20;;;;;;;32.14;34.41;101526.78;5048106;28;20491;-72
2022/08/23 05:36:47;;;;;;;13.90;9.35;;;;;;;32.02;34.63;101522.50;5039230;28;20032;-71
2022/08/23 05:39:14;;;;;;;16.38;9.10;;;;;;;32.03;34.80;101529.63;5050002;28;20027;-72
2022/08/23 05:41:40;;;;;;;16.02;9.82;;;;;;;31.57;35.21;101519.22;5059410;28;20035;-72
2022/08/23 05:44:06;;;;;;;16.27;9.55;;;;;;;32.14;34.55;101526.78;5060185;28;20048;-72
2022/08/23 05:46:32;;;;;;;14.93;8.32;;;;;;;32.05;34.47;101524.91;5064590;28;20016;-72
2022/08/23 05:48:57;;;;;;;16.27;9.55;;;;;;;31.99;34.74;101528.19;5077049;28;20024;-71
2022/08/23 05:51:28;;;;;;;19.70;10.20;;;;;;;31.59;35.16;101527.22;5059928;28;20016;-71
2022/08/23 05:53:58;;;;;;;18.02;10.23;;;;;;;31.28;35.45;101528.06;5052642;28;20123;-72
2022/08/23 05:56:26;;;;;;;14.95;9.75;;;;;;;31.77;35.10;101527.44;5067002;28;20121;-72
2022/08/23 05:58:54;;;;;;;14.10;8.82;;;;;;;31.53;35.47;101525.91;5071879;28;20107;-72
2022/08/23 06:01:20;;;;;;;16.50;9.05;;;;;;;31.70;34.84;101534.38;5066820;28;20024;-72
2022/08/23 06:03:47;;;;;;;10.70;8.75;;;;;;;31.55;35.50;101525.75;5073268;28;20043;-72
2022/08/23 06:06:16;;;;;;;14.68;9.15;;;;;;;31.46;35.65;101528.28;5065525;28;20043;-72
2022/08/23 06:08:45;;;;;;;16.10;10.35;;;;;;;31.38;36.31;101533.50;5075703;28;20119;-72
2022/08/23 06:11:17;;;;;;;16.77;10.38;;;;;;;31.37;35.82;101533.66;5054050;28;20028;-72
2022/08/23 06:13:52;;;;;;;18.55;10.55;;;;;;;31.47;35.94;101535.38;5075185;28;20395;-72
2022/08/23 06:16:20;;;;;;;14.65;10.27;;;;;;;31.39;35.60;101537.06;5062756;28;20745;-72
2022/08/23 06:18:46;;;;;;;13.88;10.27;;;;;;;31.26;35.73;101535.44;5086345;28;20039;-72
2022/08/23 06:21:14;;;;;;;15.50;9.68;;;;;;;31.54;35.22;101546.50;5066649;28;20056;-72
2022/08/23 06:23:40;;;;;;;18.48;10.18;;;;;;;31.42;35.61;101544.88;5064781;28;20028;-72
2022/08/23 06:26:16;;;;;;;16.88;9.75;;;;;;;31.56;34.93;101547.22;5070703;28;20036;-73
2022/08/23 06:28:44;;;;;;;18.67;10.68;;;;;;;31.56;34.27;101532.84;5093669;28;20035;-72
2022/08/23 06:31:09;;;;;;;17.42;10.68;;;;;;;31.54;34.92;101545.66;5076504;28;20066;-72
2022/08/23 06:33:36;;;;;;;18.90;9.82;;;;;;;31.76;34.66;101544.63;5058445;28;20034;-72
2022/08/23 06:36:12;;;;;;;18.58;9.85;;;;;;;31.65;35.04;101542.88;5071999;28;20024;-72
2022/08/23 06:38:40;;;;;;;18.65;10.35;;;;;;;31.66;35.13;101533.78;5075781;28;20392;-72
2022/08/23 06:41:08;;;;;;;18.33;9.75;;;;;;;32.01;34.42;101542.41;5076112;28;20078;-72
2022/08/23 06:43:34;;;;;;;14.45;8.43;;;;;;;31.89;34.22;101539.84;5065133;28;20048;-72
2022/08/23 06:46:15;;;;;;;16.15;9.90;;;;;;;32.18;34.43;101536.38;5035697;28;20453;-72
2022/08/23 06:48:45;;;;;;;18.80;10.60;;;;;;;32.21;34.81;101538.78;5038765;28;20051;-72
2022/08/23 06:51:36;;;;;;;15.45;10.20;;;;;;;32.63;34.20;101543.94;5053618;28;20118;-72
2022/08/23 06:54:05;;;;;;;16.92;10.52;;;;;;;32.41;34.31;101544.19;5055872;28;20365;-72
2022/08/23 06:56:31;;;;;;;15.95;10.98;;;;;;;32.75;34.09;101535.69;5048294;28;20024;-72
2022/08/23 06:58:58;;;;;;;16.65;10.55;;;;;;;31.90;34.93;101552.38;5047830;28;20083;-72
2022/08/23 07:01:40;;;;;;;23.42;11.27;;;;;;;32.67;33.81;101549.03;5071152;28;20031;-72
2022/08/23 07:04:08;;;;;;;16.30;9.82;;;;;;;33.04;33.30;101553.72;5053137;28;20021;-72
2022/08/23 07:06:34;;;;;;;18.95;11.35;;;;;;;32.77;33.07;101560.75;5039146;28;20464;-73
2022/08/23 07:09:00;;;;;;;16.30;10.18;;;;;;;32.86;32.41;101556.31;5045166;28;20023;-72
2022/08/23 07:11:30;;;;;;;17.58;10.07;;;;;;;33.22;32.15;101560.13;5047397;28;20078;-72
2022/08/23 07:13:56;;;;;;;16.63;9.20;;;;;;;33.51;31.65;101553.78;5069183;28;20055;-72
2022/08/23 07:16:21;;;;;;;21.15;9.63;;;;;;;33.92;31.45;101557.03;5039641;28;20540;-72
2022/08/23 07:18:48;;;;;;;17.40;9.93;;;;;;;33.58;31.92;101563.00;5053912;28;20552;-72
2022/08/23 07:21:14;;;;;;;20.90;9.60;;;;;;;33.48;31.73;101559.47;5047491;28;20101;-73
2022/08/23 07:23:39;;;;;;;12.98;9.07;;;;;;;33.78;31.67;101560.22;5043139;28;20370;-73
2022/08/23 07:26:08;;;;;;;13.13;8.75;;;;;;;34.41;30.83;101567.56;5027924;28;20037;-73
2022/08/23 07:28:34;;;;;;;17.52;7.95;;;;;;;36.71;27.27;101561.59;5037041;28;20063;-72
2022/08/23 07:31:16;;;;;;;15.60;6.85;;;;;;;38.52;25.08;101571.03;5043555;28;20060;-72
2022/08/23 07:33:43;;;;;;;13.85;6.65;;;;;;;39.47;25.52;101568.78;5056025;28;20027;-72
2022/08/23 07:36:09;;;;;;;11.43;6.32;;;;;;;37.99;25.28;101577.19;5034655;28;20039;-73
2022/08/23 07:38:35;;;;;;;12.75;6.80;;;;;;;39.30;25.07;101568.97;5039203;28;20024;-73
2022/08/23 07:41:03;;;;;;;11.07;7.00;;;;;;;40.94;24.08;101575.91;5042523;28;20035;-72
2022/08/23 07:43:32;;;;;;;12.57;6.88;;;;;;;41.03;22.12;101582.09;5038738;28;20451;-73
2022/08/23 07:45:58;;;;;;;8.45;6.60;;;;;;;41.97;21.95;101579.88;5066815;28;20035;-73
2022/08/23 07:48:23;;;;;;;12.45;6.60;;;;;;;42.67;20.39;101585.94;5090110;28;20024;-73
2022/08/23 07:51:00;;;;;;;13.25;6.00;;;;;;;42.94;20.91;101582.31;5074433;28;20024;-73
2022/08/23 07:53:26;;;;;;;10.60;6.07;;;;;;;43.36;20.27;101582.91;5073315;28;20569;-73
2022/08/23 07:55:52;;;;;;;9.98;5.85;;;;;;;42.87;19.97;101579.59;5073808;28;20119;-73
2022/08/23 07:58:19;;;;;;;9.05;5.63;;;;;;;42.28;20.68;101583.97;5072740;28;20057;-73
2022/08/23 08:00:45;;;;;;;8.75;5.07;;;;;;;44.07;20.01;101583.06;5091856;28;20514;-73
2022/08/23 08:03:12;;;;;;;11.90;5.47;;;;;;;43.42;19.35;101586.69;5073679;28;20114;-73
2022/08/23 08:05:38;;;;;;;7.30;4.32;;;;;;;43.78;19.51;101591.66;5073897;28;20027;-73
2022/08/23 08:08:05;;;;;;;4.38;3.30;;;;;;;43.14;19.57;101587.81;5063818;28;20040;-73
2022/08/23 08:10:31;;;;;;;7.75;3.80;;;;;;;44.01;19.43;101602.16;5061584;28;20046;-73
2022/08/23 08:12:56;;;;;;;8.45;4.10;;;;;;;42.60;19.96;101601.53;5051511;28;20483;-73
2022/08/23 08:15:22;;;;;;;9.35;4.45;;;;;;;44.23;20.77;101604.56;5053273;28;20040;-73
2022/08/23 08:17:49;;;;;;;8.95;4.03;;;;;;;46.55;17.86;101614.34;5084311;28;20027;-73
2022/08/23 08:20:16;;;;;;;7.40;4.53;;;;;;;45.27;18.22;101609.66;5091512;28;20024;-74
2022/08/23 08:22:41;;;;;;;7.30;5.03;;;;;;;43.42;19.61;101608.69;5079495;28;20020;-74
2022/08/23 08:25:08;;;;;;;10.82;4.85;;;;;;;45.67;17.63;101620.28;5083721;28;20078;-74
2022/08/23 08:27:34;;;;;;;11.30;5.63;;;;;;;46.65;16.67;101625.72;5073005;28;20510;-73
2022/08/23 08:29:59;;;;;;;9.52;4.80;;;;;;;46.16;17.86;101616.66;5054284;28;20025;-73
2022/08/23 08:32:25;;;;;;;8.38;5.07;;;;;;;46.82;16.45;101611.19;5071489;28;20059;-73
2022/08/23 08:34:51;;;;;;;15.60;5.05;;;;;;;45.38;18.32;101625.47;5052539;28;20024;-73
2022/08/23 08:37:16;;;;;;;10.02;4.60;;;;;;;45.54;17.62;101618.50;5087756;28;20020;-73
2022/08/23 08:39:44;;;;;;;9.27;4.25;;;;;;;45.52;17.87;101614.28;5090983;28;20032;-73
2022/08/23 08:42:31;;;;;;;10.35;4.85;;;;;;;45.73;16.81;101627.59;5053933;28;20024;-73
2022/08/23 08:45:02;;;;;;;6.70;3.50;;;;;;;44.47;18.23;101626.88;5053264;28;20520;-73
2022/08/23 08:47:39;;;;;;;8.70;3.58;;;;;;;45.15;18.40;101623.38;5071309;28;20021;-72
2022/08/23 08:50:04;;;;;;;8.20;3.72;;;;;;;45.60;17.58;101619.50;5052961;28;20032;-73
2022/08/23 08:53:12;;;;;;;11.85;4.18;;;;;;;44.34;18.66;101623.16;5053771;28;20124;-73
2022/08/23 08:55:45;;;;;;;8.25;4.07;;;;;;;45.01;18.47;101633.66;5005786;28;20048;-73
2022/08/23 08:58:16;;;;;;;10.57;4.50;;;;;;;42.58;19.79;101631.16;5052424;28;20024;-73
2022/08/23 09:00:42;;;;;;;9.25;4.40;;;;;;;42.52;20.60;101631.97;5053345;28;20025;-73
2022/08/23 09:03:14;;;;;;;7.93;3.85;;;;;;;42.76;20.15;101625.06;5069615;28;20111;-72
2022/08/23 09:05:51;;;;;;;7.22;3.30;;;;;;;41.32;22.00;101630.34;5062366;28;20020;-73
2022/08/23 09:08:25;;;;;;;7.35;3.00;;;;;;;41.54;21.98;101624.84;5068977;28;20050;-73
2022/08/23 09:11:00;;;;;;;6.35;2.20;;;;;;;41.09;21.12;101627.03;5056214;28;20426;-73
2022/08/23 09:13:41;;;;;;;5.20;2.60;;;;;;;42.05;21.40;101621.69;5063469;28;20512;-73
2022/08/23 09:16:34;;;;;;;6.53;2.33;;;;;;;41.90;21.21;101618.25;5078680;28;20071;-73
2022/08/23 09:19:01;;;;;;;5.75;2.35;;;;;;;44.22;19.06;101624.91;5064850;28;20024;-73
2022/08/23 09:21:28;;;;;;;8.55;2.58;;;;;;;43.27;20.25;101618.03;5076119;28;20102;-73
2022/08/23 09:23:54;;;;;;;8.63;2.95;;;;;;;43.45;19.62;101622.88;5091025;28;20031;-73
2022/08/23 09:26:25;;;;;;;6.70;2.92;;;;;;;44.11;19.53;101633.88;5089471;28;20028;-72
2022/08/23 09:28:54;;;;;;;6.60;2.40;;;;;;;43.54;20.17;101617.97;5052670;28;20135;-72
2022/08/23 09:31:41;;;;;;;8.10;2.40;;;;;;;42.27;20.22;101624.31;5052514;28;20032;-73
2022/08/23 09:34:08;;;;;;;5.05;2.60;;;;;;;42.46;20.82;101624.56;5070152;28;20032;-72
2022/08/23 09:36:36;;;;;;;4.72;1.90;;;;;;;43.63;18.96;101616.69;5053700;28;20024;-72
2022/08/23 09:39:07;;;;;;;5.25;1.70;;;;;;;41.61;21.26;101620.22;5052325;28;20050;-72
2022/08/23 09:41:35;;;;;;;7.53;1.80;;;;;;;40.18;22.46;101620.25;5052850;28;20481;-72
2022/08/23 09:44:03;;;;;;;3.45;1.60;;;;;;;40.61;22.51;101622.19;5061198;28;20044;-72
2022/08/23 09:46:40;;;;;;;8.40;2.30;;;;;;;39.85;22.99;101628.88;5044892;28;20029;-72
2022/08/23 09:49:35;;;;;;;11.20;3.75;;;;;;;39.59;23.26;101619.22;5060369;28;20043;-72
2022/08/23 09:52:13;;;;;;;7.88;2.22;;;;;;;39.93;23.25;101623.28;5047314;28;20094;-72
2022/08/23 09:54:40;;;;;;;6.53;1.75;;;;;;;39.95;23.33;101615.72;5072888;28;20032;-72
2022/08/23 09:57:09;;;;;;;9.00;2.38;;;;;;;39.07;24.30;101611.91;5071381;28;20442;-72
2022/08/23 09:59:37;;;;;;;4.30;2.03;;;;;;;40.14;23.09;101613.47;5059905;28;20451;-72
2022/08/23 10:02:05;;;;;;;5.82;2.38;;;;;;;38.84;25.12;101612.78;5056803;28;20510;-72
2022/08/23 10:04:36;;;;;;;8.77;2.00;;;;;;;41.19;22.19;101616.56;5056762;28;20020;-72
2022/08/23 10:07:23;;;;;;;6.05;1.83;;;;;;;40.25;22.98;101614.84;5055456;28;20544;-72
2022/08/23 10:09:48;;;;;;;7.43;1.90;;;;;;;38.64;25.31;101618.72;5066149;28;20016;-72
2022/08/23 10:12:14;;;;;;;7.70;1.88;;;;;;;39.30;23.72;101612.72;5062545;28;20033;-73
2022/08/23 10:14:40;;;;;;;6.18;2.08;;;;;;;39.80;23.61;101607.53;5070076;28;20051;-72
2022/08/23 10:17:22;;;;;;;9.40;1.85;;;;;;;40.40;23.47;101601.09;5059882;28;20101;-72
2022/08/23 10:20:09;;;;;;;8.93;2.30;;;;;;;40.22;23.63;101599.66;5060485;28;20028;-72
2022/08/23 10:22:57;;;;;;;4.80;2.00;;;;;;;40.54;23.41;101597.47;5084979;28;20028;-73
2022/08/23 10:25:40;;;;;;;5.07;2.45;;;;;;;40.37;23.09;101597.69;5059913;28;20025;-72
2022/08/23 10:31:30;;;;;;;7.35;2.05;;;;;;;41.30;22.48;101605.06;5073814;28;20035;-72
2022/08/23 10:34:05;;;;;;;9.35;2.05;;;;;;;41.28;23.06;101598.91;5055538;28;20036;-72
2022/08/23 10:37:02;;;;;;;4.40;2.05;;;;;;;39.68;23.51;101598.13;5065200;28;20428;-72
2022/08/23 10:39:29;;;;;;;3.42;1.92;;;;;;;38.47;25.45;101595.31;5057778;28;20444;-73
2022/08/23 10:42:05;;;;;;;4.30;2.08;;;;;;;39.76;23.81;101594.44;5060407;28;20051;-73
2022/08/23 10:44:38;;;;;;;4.10;1.90;;;;;;;40.52;22.64;101594.09;5069855;28;20052;-72
2022/08/23 10:47:21;;;;;;;4.88;1.63;;;;;;;38.14;24.52;101603.69;5054355;28;20487;-72
2022/08/23 10:49:51;;;;;;;5.85;1.48;;;;;;;38.28;24.97;101600.22;5072378;28;20024;-73
2022/08/23 10:52:22;;;;;;;6.95;1.80;;;;;;;40.53;23.02;101595.75;5054972;28;20025;-72
2022/08/23 10:55:04;;;;;;;8.27;1.60;;;;;;;40.72;22.81;101598.91;5056726;28;20067;-73
2022/08/23 10:57:34;;;;;;;4.28;1.42;;;;;;;39.61;23.90;101592.59;5062600;28;20020;-72
2022/08/23 11:00:10;;;;;;;5.38;1.75;;;;;;;38.45;24.23;101598.22;5056448;28;20054;-72
2022/08/23 11:03:04;;;;;;;4.68;1.27;;;;;;;39.38;23.06;101597.25;5072438;28;20428;-72
2022/08/23 11:05:34;;;;;;;5.40;1.60;;;;;;;37.08;25.84;101600.25;5073409;28;20454;-72
2022/08/23 11:08:06;;;;;;;7.55;1.50;;;;;;;38.91;24.26;101586.47;5055103;28;20392;-72
2022/08/23 11:10:40;;;;;;;6.00;1.38;;;;;;;36.59;26.90;101596.50;5074052;28;20062;-73
2022/08/23 11:13:20;;;;;;;6.68;1.70;;;;;;;37.39;26.08;101602.28;5092940;28;20433;-73
2022/08/23 11:16:19;;;;;;;4.88;1.85;;;;;;;37.76;25.35;101606.28;5066152;28;20020;-72
2022/08/23 11:18:47;;;;;;;3.22;1.23;;;;;;;35.91;26.91;101606.50;5079170;28;20025;-72
2022/08/23 11:21:16;;;;;;;4.82;1.58;;;;;;;35.89;27.55;101605.84;5059485;28;20411;-73
2022/08/23 11:23:43;;;;;;;4.25;1.75;;;;;;;35.46;28.60;101610.34;5059539;28;20032;-74
2022/08/23 11:26:34;;;;;;;5.97;1.67;;;;;;;37.64;26.31;101606.63;5053769;28;20490;-72
2022/08/23 11:29:06;;;;;;;3.38;1.60;;;;;;;38.95;24.80;101601.44;5030267;28;20044;-73
2022/08/23 11:31:37;;;;;;;3.42;1.70;;;;;;;38.52;24.16;101601.91;5073600;28;20118;-73
2022/08/23 11:34:11;;;;;;;5.18;1.92;;;;;;;39.13;23.98;101608.41;5074281;28;20061;-73
2022/08/23 11:36:37;;;;;;;5.85;2.10;;;;;;;36.48;27.18;101613.16;5092214;28;20583;-72
2022/08/23 11:39:11;;;;;;;4.25;1.88;;;;;;;37.42;26.20;101612.84;5066513;28;20107;-73
2022/08/23 11:41:56;;;;;;;4.90;2.35;;;;;;;39.49;23.87;101615.94;5053936;28;20113;-72
2022/08/23 11:44:36;;;;;;;6.13;1.70;;;;;;;38.11;25.34;101620.41;5052481;28;20044;-72